Overton RPC :: 150B Sugar Tree

liberation: 2020-12-27  07:30     latitude: 35.832927     longitude: -88.035592 35 birds
# LOFT PRING MILES ARRIVAL SPEED ToWin
1 VALHALLA LOFTS IF20-VALH-0017 158.271 2020-09-12 11:59:34.198 1033.339 00:00:00
2 VALHALLA LOFTS IF20-VALH-0088 158.271 2020-09-12 11:59:54.725 1032.029 00:00:21
3 VALHALLA LOFTS IF20-ORP-0017 158.271 2020-09-12 12:00:01.173 1031.618 00:00:27
4 VALHALLA LOFTS IF20-ORP-0003 158.271 2020-09-12 12:00:01.531 1031.596 00:00:27
5 VALHALLA LOFTS IF20-VALH-0041 158.271 2020-09-12 12:00:10.350 1031.034 00:00:36
6 VALHALLA LOFTS IF20-VALH-0048 158.271 2020-09-12 12:00:11.249 1030.977 00:00:37
7 VALHALLA LOFTS IF20-VALH-0034 158.271 2020-09-12 12:01:06.269 1027.490 00:01:32
8 VALHALLA LOFTS IF20-VALH-0020 158.271 2020-09-12 12:01:33.376 1025.781 00:01:59
9 VALHALLA LOFTS IF20-ORP-0010 158.271 2020-09-12 12:01:57.750 1024.248 00:02:24
10 VALHALLA LOFTS IF20-VALH-0032 158.271 2020-09-12 12:02:42.949 1021.419 00:03:09
11 VALHALLA LOFTS IF20-VALH-0014 158.271 2020-09-12 12:03:24.997 1018.801 00:03:51
12 VALHALLA LOFTS IF20-VALH-0038 158.271 2020-09-12 12:04:05.001 1016.323 00:04:31
13 VALHALLA LOFTS IF20-VALH-0040 158.271 2020-09-12 12:06:07.396 1008.815 00:06:33
14 VALHALLA LOFTS IF20-VALH-0089 158.271 2020-09-12 12:06:11.305 1008.577 00:06:37
15 VALHALLA LOFTS IF20-ORP-0004 158.271 2020-09-12 12:06:52.891 1006.052 00:07:19
16 VALHALLA LOFTS IF20-ORP-0016 158.271 2020-09-12 12:29:20.511 930.565 00:29:46
17 VALHALLA LOFTS IF20-VALH-0095 158.271 2020-09-12 12:33:52.228 916.697 00:34:18
18 VALHALLA LOFTS IF20-VALH-0013 158.271 2020-09-12 13:42:58.319 746.858 01:43:24
19 VALHALLA LOFTS IF20-VALH-0010 158.271 2020-09-12 13:44:28.589 743.858 01:44:54
20 LET IT GO LOFT IF20-ORP-0129 181.373 2020-09-12 18:26:16.475 486.407 05:47:21
21 VALHALLA LOFTS IF20-VALH-0044 158.271 2020-09-12 17:44:39.917 453.185 05:45:06
LET IT GO LOFT IF20-ORP-0103 0 0000-00-00 00:00:00.000 0.000 00:00:00
LET IT GO LOFT IF20-ORP-0109 0 0000-00-00 00:00:00.000 0.000 00:00:00
LET IT GO LOFT IF20-ORP-0111 0 0000-00-00 00:00:00.000 0.000 00:00:00
LET IT GO LOFT IF20-ORP-0121 0 0000-00-00 00:00:00.000 0.000 00:00:00
LET IT GO LOFT IF20-ORP-0123 0 0000-00-00 00:00:00.000 0.000 00:00:00
LET IT GO LOFT IF20-ORP-0124 0 0000-00-00 00:00:00.000 0.000 00:00:00
LET IT GO LOFT IF20-ORP-0126 0 0000-00-00 00:00:00.000 0.000 00:00:00
VALHALLA LOFTS IF20-ORP-0005 0 0000-00-00 00:00:00.000 0.000 00:00:00
VALHALLA LOFTS IF20-VALH-0001 0 0000-00-00 00:00:00.000 0.000 00:00:00
VALHALLA LOFTS IF20-VALH-0027 0 0000-00-00 00:00:00.000 0.000 00:00:00
VALHALLA LOFTS IF20-VALH-0029 0 0000-00-00 00:00:00.000 0.000 00:00:00
VALHALLA LOFTS IF20-VALH-0031 0 0000-00-00 00:00:00.000 0.000 00:00:00
VALHALLA LOFTS IF20-VALH-0045 0 0000-00-00 00:00:00.000 0.000 00:00:00
VALHALLA LOFTS IF20-VALH-0098 0 0000-00-00 00:00:00.000 0.000 00:00:00